sensor_id;sensor_type;location;lat;lon;timestamp;pressure;altitude;pressure_sealevel;temperature;humidity
57250;BME280;43102;52.014;-0.680;2022-10-16T00:00:00;99537;;;12.50;69.07
57250;BME280;43102;52.014;-0.680;2022-10-16T00:01:04;99537;;;12.50;69.07
57250;BME280;43102;52.014;-0.680;2022-10-16T00:02:00;99537;;;12.50;69.07
57250;BME280;43102;52.014;-0.680;2022-10-16T00:03:00;99539;;;12.46;69.28
57250;BME280;43102;52.014;-0.680;2022-10-16T00:04:00;99539;;;12.46;69.28
57250;BME280;43102;52.014;-0.680;2022-10-16T00:05:00;99539;;;12.46;69.28
57250;BME280;43102;52.014;-0.680;2022-10-16T00:06:00;99539;;;12.46;69.28
57250;BME280;43102;52.014;-0.680;2022-10-16T00:07:00;99539;;;12.46;69.28
57250;BME280;43102;52.014;-0.680;2022-10-16T00:08:00;99549;;;12.41;69.47
57250;BME280;43102;52.014;-0.680;2022-10-16T00:09:00;99549;;;12.41;69.47
57250;BME280;43102;52.014;-0.680;2022-10-16T00:10:00;99549;;;12.41;69.47
57250;BME280;43102;52.014;-0.680;2022-10-16T00:11:01;99549;;;12.41;69.47
57250;BME280;43102;52.014;-0.680;2022-10-16T00:12:00;99549;;;12.41;69.47
57250;BME280;43102;52.014;-0.680;2022-10-16T00:13:00;99549;;;12.42;69.29
57250;BME280;43102;52.014;-0.680;2022-10-16T00:14:01;99549;;;12.42;69.29
57250;BME280;43102;52.014;-0.680;2022-10-16T00:15:00;99549;;;12.42;69.29
57250;BME280;43102;52.014;-0.680;2022-10-16T00:16:00;99549;;;12.42;69.29
57250;BME280;43102;52.014;-0.680;2022-10-16T00:17:00;99549;;;12.42;69.29
57250;BME280;43102;52.014;-0.680;2022-10-16T00:18:00;99544;;;12.36;69.23
57250;BME280;43102;52.014;-0.680;2022-10-16T00:19:00;99544;;;12.36;69.23
57250;BME280;43102;52.014;-0.680;2022-10-16T00:20:00;99544;;;12.36;69.23
57250;BME280;43102;52.014;-0.680;2022-10-16T00:21:02;99544;;;12.36;69.23
57250;BME280;43102;52.014;-0.680;2022-10-16T00:22:00;99544;;;12.36;69.23
57250;BME280;43102;52.014;-0.680;2022-10-16T00:23:00;99546;;;12.38;68.91
57250;BME280;43102;52.014;-0.680;2022-10-16T00:24:01;99546;;;12.38;68.91
57250;BME280;43102;52.014;-0.680;2022-10-16T00:25:00;99546;;;12.38;68.91
57250;BME280;43102;52.014;-0.680;2022-10-16T00:26:02;99546;;;12.38;68.91
57250;BME280;43102;52.014;-0.680;2022-10-16T00:27:00;99546;;;12.38;68.91
57250;BME280;43102;52.014;-0.680;2022-10-16T00:28:00;99548;;;12.32;69.02
57250;BME280;43102;52.014;-0.680;2022-10-16T00:29:00;99548;;;12.32;69.02
57250;BME280;43102;52.014;-0.680;2022-10-16T00:30:00;99548;;;12.32;69.02
57250;BME280;43102;52.014;-0.680;2022-10-16T00:31:05;99548;;;12.32;69.02
57250;BME280;43102;52.014;-0.680;2022-10-16T00:32:00;99548;;;12.32;69.02
57250;BME280;43102;52.014;-0.680;2022-10-16T00:33:00;99541;;;12.29;68.95
57250;BME280;43102;52.014;-0.680;2022-10-16T00:34:00;99541;;;12.29;68.95
57250;BME280;43102;52.014;-0.680;2022-10-16T00:35:00;99541;;;12.29;68.95
57250;BME280;43102;52.014;-0.680;2022-10-16T00:36:00;99541;;;12.29;68.95
57250;BME280;43102;52.014;-0.680;2022-10-16T00:37:00;99541;;;12.29;68.95
57250;BME280;43102;52.014;-0.680;2022-10-16T00:38:00;99540;;;12.29;68.77
57250;BME280;43102;52.014;-0.680;2022-10-16T00:39:00;99540;;;12.29;68.77
57250;BME280;43102;52.014;-0.680;2022-10-16T00:40:00;99540;;;12.29;68.77
57250;BME280;43102;52.014;-0.680;2022-10-16T00:41:00;99540;;;12.29;68.77
57250;BME280;43102;52.014;-0.680;2022-10-16T00:42:00;99540;;;12.29;68.77
57250;BME280;43102;52.014;-0.680;2022-10-16T00:43:00;99552;;;12.25;68.73
57250;BME280;43102;52.014;-0.680;2022-10-16T00:44:01;99552;;;12.25;68.73
57250;BME280;43102;52.014;-0.680;2022-10-16T00:45:00;99552;;;12.25;68.73
57250;BME280;43102;52.014;-0.680;2022-10-16T00:46:01;99552;;;12.25;68.73
57250;BME280;43102;52.014;-0.680;2022-10-16T00:47:00;99552;;;12.25;68.73
57250;BME280;43102;52.014;-0.680;2022-10-16T00:48:00;99553;;;12.17;69.05
57250;BME280;43102;52.014;-0.680;2022-10-16T00:50:02;99553;;;12.17;69.05
57250;BME280;43102;52.014;-0.680;2022-10-16T00:51:00;99553;;;12.17;69.05
57250;BME280;43102;52.014;-0.680;2022-10-16T00:52:00;99553;;;12.17;69.05
57250;BME280;43102;52.014;-0.680;2022-10-16T00:53:00;99549;;;12.17;68.97
57250;BME280;43102;52.014;-0.680;2022-10-16T00:54:01;99549;;;12.17;68.97
57250;BME280;43102;52.014;-0.680;2022-10-16T00:55:00;99549;;;12.17;68.97
57250;BME280;43102;52.014;-0.680;2022-10-16T00:56:00;99549;;;12.17;68.97
57250;BME280;43102;52.014;-0.680;2022-10-16T00:57:01;99549;;;12.17;68.97
57250;BME280;43102;52.014;-0.680;2022-10-16T00:58:00;99559;;;12.12;69.10
57250;BME280;43102;52.014;-0.680;2022-10-16T00:59:01;99559;;;12.12;69.10
57250;BME280;43102;52.014;-0.680;2022-10-16T01:00:00;99559;;;12.12;69.10
57250;BME280;43102;52.014;-0.680;2022-10-16T01:01:00;99559;;;12.12;69.10
57250;BME280;43102;52.014;-0.680;2022-10-16T01:02:00;99559;;;12.12;69.10
57250;BME280;43102;52.014;-0.680;2022-10-16T01:03:00;99564;;;12.17;69.01
57250;BME280;43102;52.014;-0.680;2022-10-16T01:04:00;99564;;;12.17;69.01
57250;BME280;43102;52.014;-0.680;2022-10-16T01:05:00;99564;;;12.17;69.01
57250;BME280;43102;52.014;-0.680;2022-10-16T01:07:06;99564;;;12.17;69.01
57250;BME280;43102;52.014;-0.680;2022-10-16T01:08:04;99556;;;12.17;68.93
57250;BME280;43102;52.014;-0.680;2022-10-16T01:11:03;99556;;;12.17;68.93
57250;BME280;43102;52.014;-0.680;2022-10-16T01:12:06;99556;;;12.17;68.93
57250;BME280;43102;52.014;-0.680;2022-10-16T01:13:09;99563;;;12.11;69.19
57250;BME280;43102;52.014;-0.680;2022-10-16T01:14:02;99563;;;12.11;69.19
57250;BME280;43102;52.014;-0.680;2022-10-16T01:15:02;99563;;;12.11;69.19
57250;BME280;43102;52.014;-0.680;2022-10-16T01:16:02;99563;;;12.11;69.19
57250;BME280;43102;52.014;-0.680;2022-10-16T01:17:01;99563;;;12.11;69.19
57250;BME280;43102;52.014;-0.680;2022-10-16T01:18:01;99567;;;12.09;69.30
57250;BME280;43102;52.014;-0.680;2022-10-16T01:21:02;99567;;;12.09;69.30
57250;BME280;43102;52.014;-0.680;2022-10-16T01:22:00;99567;;;12.09;69.30
57250;BME280;43102;52.014;-0.680;2022-10-16T01:23:10;99566;;;12.06;69.63
57250;BME280;43102;52.014;-0.680;2022-10-16T01:25:00;99566;;;12.06;69.63
57250;BME280;43102;52.014;-0.680;2022-10-16T01:27:09;99566;;;12.06;69.63
57250;BME280;43102;52.014;-0.680;2022-10-16T01:28:00;99572;;;12.09;69.59
57250;BME280;43102;52.014;-0.680;2022-10-16T01:30:02;99572;;;12.09;69.59
57250;BME280;43102;52.014;-0.680;2022-10-16T01:31:00;99572;;;12.09;69.59
57250;BME280;43102;52.014;-0.680;2022-10-16T01:32:01;99572;;;12.09;69.59
57250;BME280;43102;52.014;-0.680;2022-10-16T01:33:01;99584;;;12.10;69.69
57250;BME280;43102;52.014;-0.680;2022-10-16T01:34:10;99584;;;12.10;69.69
57250;BME280;43102;52.014;-0.680;2022-10-16T01:36:02;99584;;;12.10;69.69
57250;BME280;43102;52.014;-0.680;2022-10-16T01:37:02;99584;;;12.10;69.69
57250;BME280;43102;52.014;-0.680;2022-10-16T01:38:02;99586;;;12.10;69.82
57250;BME280;43102;52.014;-0.680;2022-10-16T01:39:00;99586;;;12.10;69.82
57250;BME280;43102;52.014;-0.680;2022-10-16T01:40:00;99586;;;12.10;69.82
57250;BME280;43102;52.014;-0.680;2022-10-16T01:41:01;99586;;;12.10;69.82
57250;BME280;43102;52.014;-0.680;2022-10-16T01:42:03;99586;;;12.10;69.82
57250;BME280;43102;52.014;-0.680;2022-10-16T01:43:01;99588;;;12.12;69.78
57250;BME280;43102;52.014;-0.680;2022-10-16T01:45:00;99588;;;12.12;69.78
57250;BME280;43102;52.014;-0.680;2022-10-16T01:46:00;99588;;;12.12;69.78
57250;BME280;43102;52.014;-0.680;2022-10-16T01:47:00;99588;;;12.12;69.78
57250;BME280;43102;52.014;-0.680;2022-10-16T01:48:00;99592;;;12.06;70.26
57250;BME280;43102;52.014;-0.680;2022-10-16T01:49:00;99592;;;12.06;70.26
57250;BME280;43102;52.014;-0.680;2022-10-16T01:50:00;99592;;;12.06;70.26
57250;BME280;43102;52.014;-0.680;2022-10-16T01:51:02;99592;;;12.06;70.26
57250;BME280;43102;52.014;-0.680;2022-10-16T01:52:00;99592;;;12.06;70.26
57250;BME280;43102;52.014;-0.680;2022-10-16T01:53:00;99597;;;12.06;70.33
57250;BME280;43102;52.014;-0.680;2022-10-16T01:54:00;99597;;;12.06;70.33
57250;BME280;43102;52.014;-0.680;2022-10-16T01:55:00;99597;;;12.06;70.33
57250;BME280;43102;52.014;-0.680;2022-10-16T01:56:00;99597;;;12.06;70.33
57250;BME280;43102;52.014;-0.680;2022-10-16T01:57:00;99597;;;12.06;70.33
57250;BME280;43102;52.014;-0.680;2022-10-16T01:58:00;99592;;;12.04;70.64
57250;BME280;43102;52.014;-0.680;2022-10-16T01:59:02;99592;;;12.04;70.64
57250;BME280;43102;52.014;-0.680;2022-10-16T02:00:01;99592;;;12.04;70.64
57250;BME280;43102;52.014;-0.680;2022-10-16T02:01:00;99592;;;12.04;70.64
57250;BME280;43102;52.014;-0.680;2022-10-16T02:02:00;99592;;;12.04;70.64
57250;BME280;43102;52.014;-0.680;2022-10-16T02:03:00;99597;;;12.05;70.71
57250;BME280;43102;52.014;-0.680;2022-10-16T02:04:02;99597;;;12.05;70.71
57250;BME280;43102;52.014;-0.680;2022-10-16T02:05:05;99597;;;12.05;70.71
57250;BME280;43102;52.014;-0.680;2022-10-16T02:06:00;99597;;;12.05;70.71
57250;BME280;43102;52.014;-0.680;2022-10-16T02:07:00;99597;;;12.05;70.71
57250;BME280;43102;52.014;-0.680;2022-10-16T02:08:00;99593;;;12.01;71.06
57250;BME280;43102;52.014;-0.680;2022-10-16T02:09:00;99593;;;12.01;71.06
57250;BME280;43102;52.014;-0.680;2022-10-16T02:10:00;99593;;;12.01;71.06
57250;BME280;43102;52.014;-0.680;2022-10-16T02:11:00;99593;;;12.01;71.06
57250;BME280;43102;52.014;-0.680;2022-10-16T02:12:01;99593;;;12.01;71.06
57250;BME280;43102;52.014;-0.680;2022-10-16T02:13:01;99607;;;12.00;71.28
57250;BME280;43102;52.014;-0.680;2022-10-16T02:14:04;99607;;;12.00;71.28
57250;BME280;43102;52.014;-0.680;2022-10-16T02:15:00;99607;;;12.00;71.28
57250;BME280;43102;52.014;-0.680;2022-10-16T02:16:00;99607;;;12.00;71.28
57250;BME280;43102;52.014;-0.680;2022-10-16T02:17:00;99607;;;12.00;71.28
57250;BME280;43102;52.014;-0.680;2022-10-16T02:18:00;99616;;;12.02;71.48
57250;BME280;43102;52.014;-0.680;2022-10-16T02:19:00;99616;;;12.02;71.48
57250;BME280;43102;52.014;-0.680;2022-10-16T02:20:00;99616;;;12.02;71.48
57250;BME280;43102;52.014;-0.680;2022-10-16T02:21:08;99616;;;12.02;71.48
57250;BME280;43102;52.014;-0.680;2022-10-16T02:22:01;99616;;;12.02;71.48
57250;BME280;43102;52.014;-0.680;2022-10-16T02:23:00;99625;;;12.02;71.40
57250;BME280;43102;52.014;-0.680;2022-10-16T02:24:03;99625;;;12.02;71.40
57250;BME280;43102;52.014;-0.680;2022-10-16T02:26:00;99625;;;12.02;71.40
57250;BME280;43102;52.014;-0.680;2022-10-16T02:27:05;99625;;;12.02;71.40
57250;BME280;43102;52.014;-0.680;2022-10-16T02:29:00;99628;;;11.97;71.94
57250;BME280;43102;52.014;-0.680;2022-10-16T02:30:05;99628;;;11.97;71.94
57250;BME280;43102;52.014;-0.680;2022-10-16T02:31:01;99628;;;11.97;71.94
57250;BME280;43102;52.014;-0.680;2022-10-16T02:32:01;99628;;;11.97;71.94
57250;BME280;43102;52.014;-0.680;2022-10-16T02:33:00;99634;;;11.97;71.85
57250;BME280;43102;52.014;-0.680;2022-10-16T02:34:00;99634;;;11.97;71.85
57250;BME280;43102;52.014;-0.680;2022-10-16T02:35:00;99634;;;11.97;71.85
57250;BME280;43102;52.014;-0.680;2022-10-16T02:36:00;99634;;;11.97;71.85
57250;BME280;43102;52.014;-0.680;2022-10-16T02:37:00;99634;;;11.97;71.85
57250;BME280;43102;52.014;-0.680;2022-10-16T02:38:00;99640;;;11.94;71.76
57250;BME280;43102;52.014;-0.680;2022-10-16T02:39:00;99640;;;11.94;71.76
57250;BME280;43102;52.014;-0.680;2022-10-16T02:40:00;99640;;;11.94;71.76
57250;BME280;43102;52.014;-0.680;2022-10-16T02:41:00;99640;;;11.94;71.76
57250;BME280;43102;52.014;-0.680;2022-10-16T02:42:00;99640;;;11.94;71.76
57250;BME280;43102;52.014;-0.680;2022-10-16T02:43:00;99646;;;11.93;71.69
57250;BME280;43102;52.014;-0.680;2022-10-16T02:44:00;99646;;;11.93;71.69
57250;BME280;43102;52.014;-0.680;2022-10-16T02:45:00;99646;;;11.93;71.69
57250;BME280;43102;52.014;-0.680;2022-10-16T02:46:00;99646;;;11.93;71.69
57250;BME280;43102;52.014;-0.680;2022-10-16T02:47:00;99646;;;11.93;71.69
57250;BME280;43102;52.014;-0.680;2022-10-16T02:48:00;99663;;;11.92;71.84
57250;BME280;43102;52.014;-0.680;2022-10-16T02:49:00;99663;;;11.92;71.84
57250;BME280;43102;52.014;-0.680;2022-10-16T02:50:00;99663;;;11.92;71.84
57250;BME280;43102;52.014;-0.680;2022-10-16T02:51:00;99663;;;11.92;71.84
57250;BME280;43102;52.014;-0.680;2022-10-16T02:52:00;99663;;;11.92;71.84
57250;BME280;43102;52.014;-0.680;2022-10-16T02:53:00;99666;;;11.89;71.90
57250;BME280;43102;52.014;-0.680;2022-10-16T02:54:01;99666;;;11.89;71.90
57250;BME280;43102;52.014;-0.680;2022-10-16T02:55:00;99666;;;11.89;71.90
57250;BME280;43102;52.014;-0.680;2022-10-16T02:56:00;99666;;;11.89;71.90
57250;BME280;43102;52.014;-0.680;2022-10-16T02:57:00;99666;;;11.89;71.90
57250;BME280;43102;52.014;-0.680;2022-10-16T02:58:00;99669;;;11.83;72.20
57250;BME280;43102;52.014;-0.680;2022-10-16T02:59:00;99669;;;11.83;72.20
57250;BME280;43102;52.014;-0.680;2022-10-16T03:00:00;99669;;;11.83;72.20
57250;BME280;43102;52.014;-0.680;2022-10-16T03:01:00;99669;;;11.83;72.20
57250;BME280;43102;52.014;-0.680;2022-10-16T03:02:00;99669;;;11.83;72.20
57250;BME280;43102;52.014;-0.680;2022-10-16T03:03:00;99673;;;11.83;72.13
57250;BME280;43102;52.014;-0.680;2022-10-16T03:04:00;99673;;;11.83;72.13
57250;BME280;43102;52.014;-0.680;2022-10-16T03:05:00;99673;;;11.83;72.13
57250;BME280;43102;52.014;-0.680;2022-10-16T03:06:00;99673;;;11.83;72.13
57250;BME280;43102;52.014;-0.680;2022-10-16T03:07:00;99673;;;11.83;72.13
57250;BME280;43102;52.014;-0.680;2022-10-16T03:08:00;99680;;;11.82;72.03
57250;BME280;43102;52.014;-0.680;2022-10-16T03:09:00;99680;;;11.82;72.03
57250;BME280;43102;52.014;-0.680;2022-10-16T03:10:00;99680;;;11.82;72.03
57250;BME280;43102;52.014;-0.680;2022-10-16T03:11:00;99680;;;11.82;72.03
57250;BME280;43102;52.014;-0.680;2022-10-16T03:12:00;99680;;;11.82;72.03
57250;BME280;43102;52.014;-0.680;2022-10-16T03:13:00;99687;;;11.77;72.11
57250;BME280;43102;52.014;-0.680;2022-10-16T03:14:00;99687;;;11.77;72.11
57250;BME280;43102;52.014;-0.680;2022-10-16T03:15:00;99687;;;11.77;72.11
57250;BME280;43102;52.014;-0.680;2022-10-16T03:16:00;99687;;;11.77;72.11
57250;BME280;43102;52.014;-0.680;2022-10-16T03:17:00;99687;;;11.77;72.11
57250;BME280;43102;52.014;-0.680;2022-10-16T03:18:00;99691;;;11.75;71.99
57250;BME280;43102;52.014;-0.680;2022-10-16T03:19:00;99691;;;11.75;71.99
57250;BME280;43102;52.014;-0.680;2022-10-16T03:20:00;99691;;;11.75;71.99
57250;BME280;43102;52.014;-0.680;2022-10-16T03:21:00;99691;;;11.75;71.99
57250;BME280;43102;52.014;-0.680;2022-10-16T03:22:00;99691;;;11.75;71.99
57250;BME280;43102;52.014;-0.680;2022-10-16T03:23:00;99701;;;11.70;72.03
57250;BME280;43102;52.014;-0.680;2022-10-16T03:24:00;99701;;;11.70;72.03
57250;BME280;43102;52.014;-0.680;2022-10-16T03:25:00;99701;;;11.70;72.03
57250;BME280;43102;52.014;-0.680;2022-10-16T03:26:00;99701;;;11.70;72.03
57250;BME280;43102;52.014;-0.680;2022-10-16T03:27:00;99701;;;11.70;72.03
57250;BME280;43102;52.014;-0.680;2022-10-16T03:28:00;99696;;;11.64;72.22
57250;BME280;43102;52.014;-0.680;2022-10-16T03:29:00;99696;;;11.64;72.22
57250;BME280;43102;52.014;-0.680;2022-10-16T03:30:00;99696;;;11.64;72.22
57250;BME280;43102;52.014;-0.680;2022-10-16T03:31:00;99696;;;11.64;72.22
57250;BME280;43102;52.014;-0.680;2022-10-16T03:32:00;99696;;;11.64;72.22
57250;BME280;43102;52.014;-0.680;2022-10-16T03:33:00;99700;;;11.62;72.28
57250;BME280;43102;52.014;-0.680;2022-10-16T03:34:00;99700;;;11.62;72.28
57250;BME280;43102;52.014;-0.680;2022-10-16T03:35:00;99700;;;11.62;72.28
57250;BME280;43102;52.014;-0.680;2022-10-16T03:36:00;99700;;;11.62;72.28
57250;BME280;43102;52.014;-0.680;2022-10-16T03:37:00;99700;;;11.62;72.28
57250;BME280;43102;52.014;-0.680;2022-10-16T03:38:00;99707;;;11.58;72.33
57250;BME280;43102;52.014;-0.680;2022-10-16T03:39:00;99707;;;11.58;72.33
57250;BME280;43102;52.014;-0.680;2022-10-16T03:40:00;99707;;;11.58;72.33
57250;BME280;43102;52.014;-0.680;2022-10-16T03:41:00;99707;;;11.58;72.33
57250;BME280;43102;52.014;-0.680;2022-10-16T03:42:00;99707;;;11.58;72.33
57250;BME280;43102;52.014;-0.680;2022-10-16T03:43:00;99710;;;11.53;72.12
57250;BME280;43102;52.014;-0.680;2022-10-16T03:44:00;99710;;;11.53;72.12
57250;BME280;43102;52.014;-0.680;2022-10-16T03:45:00;99710;;;11.53;72.12
57250;BME280;43102;52.014;-0.680;2022-10-16T03:46:00;99710;;;11.53;72.12
57250;BME280;43102;52.014;-0.680;2022-10-16T03:47:00;99710;;;11.53;72.12
57250;BME280;43102;52.014;-0.680;2022-10-16T03:48:00;99720;;;11.53;71.85
57250;BME280;43102;52.014;-0.680;2022-10-16T03:49:00;99720;;;11.53;71.85
57250;BME280;43102;52.014;-0.680;2022-10-16T03:50:00;99720;;;11.53;71.85
57250;BME280;43102;52.014;-0.680;2022-10-16T03:51:00;99720;;;11.53;71.85
57250;BME280;43102;52.014;-0.680;2022-10-16T03:52:00;99720;;;11.53;71.85
57250;BME280;43102;52.014;-0.680;2022-10-16T03:53:00;99730;;;11.50;71.71
57250;BME280;43102;52.014;-0.680;2022-10-16T03:54:00;99730;;;11.50;71.71
57250;BME280;43102;52.014;-0.680;2022-10-16T03:55:00;99730;;;11.50;71.71
57250;BME280;43102;52.014;-0.680;2022-10-16T03:56:00;99730;;;11.50;71.71
57250;BME280;43102;52.014;-0.680;2022-10-16T03:57:00;99730;;;11.50;71.71
57250;BME280;43102;52.014;-0.680;2022-10-16T03:58:00;99735;;;11.43;71.79
57250;BME280;43102;52.014;-0.680;2022-10-16T03:59:00;99735;;;11.43;71.79
57250;BME280;43102;52.014;-0.680;2022-10-16T04:00:00;99735;;;11.43;71.79
57250;BME280;43102;52.014;-0.680;2022-10-16T04:01:00;99735;;;11.43;71.79
57250;BME280;43102;52.014;-0.680;2022-10-16T04:02:00;99735;;;11.43;71.79
57250;BME280;43102;52.014;-0.680;2022-10-16T04:03:00;99743;;;11.42;71.57
57250;BME280;43102;52.014;-0.680;2022-10-16T04:04:00;99743;;;11.42;71.57
57250;BME280;43102;52.014;-0.680;2022-10-16T04:05:00;99743;;;11.42;71.57
57250;BME280;43102;52.014;-0.680;2022-10-16T04:06:00;99743;;;11.42;71.57
57250;BME280;43102;52.014;-0.680;2022-10-16T04:07:00;99743;;;11.42;71.57
57250;BME280;43102;52.014;-0.680;2022-10-16T04:08:00;99750;;;11.36;71.43
57250;BME280;43102;52.014;-0.680;2022-10-16T04:09:00;99750;;;11.36;71.43
57250;BME280;43102;52.014;-0.680;2022-10-16T04:10:00;99750;;;11.36;71.43
57250;BME280;43102;52.014;-0.680;2022-10-16T04:11:00;99750;;;11.36;71.43
57250;BME280;43102;52.014;-0.680;2022-10-16T04:12:00;99750;;;11.36;71.43
57250;BME280;43102;52.014;-0.680;2022-10-16T04:13:04;99763;;;11.34;71.37
57250;BME280;43102;52.014;-0.680;2022-10-16T04:14:00;99763;;;11.34;71.37
57250;BME280;43102;52.014;-0.680;2022-10-16T04:15:00;99763;;;11.34;71.37
57250;BME280;43102;52.014;-0.680;2022-10-16T04:16:00;99763;;;11.34;71.37
57250;BME280;43102;52.014;-0.680;2022-10-16T04:17:00;99763;;;11.34;71.37
57250;BME280;43102;52.014;-0.680;2022-10-16T04:18:00;99761;;;11.28;71.35
57250;BME280;43102;52.014;-0.680;2022-10-16T04:19:00;99761;;;11.28;71.35
57250;BME280;43102;52.014;-0.680;2022-10-16T04:20:00;99761;;;11.28;71.35
57250;BME280;43102;52.014;-0.680;2022-10-16T04:21:04;99761;;;11.28;71.35
57250;BME280;43102;52.014;-0.680;2022-10-16T04:22:00;99761;;;11.28;71.35
57250;BME280;43102;52.014;-0.680;2022-10-16T04:23:00;99767;;;11.24;71.30
57250;BME280;43102;52.014;-0.680;2022-10-16T04:24:00;99767;;;11.24;71.30
57250;BME280;43102;52.014;-0.680;2022-10-16T04:25:00;99767;;;11.24;71.30
57250;BME280;43102;52.014;-0.680;2022-10-16T04:26:00;99767;;;11.24;71.30
57250;BME280;43102;52.014;-0.680;2022-10-16T04:27:00;99767;;;11.24;71.30
57250;BME280;43102;52.014;-0.680;2022-10-16T04:28:00;99792;;;11.21;71.28
57250;BME280;43102;52.014;-0.680;2022-10-16T04:29:00;99792;;;11.21;71.28
57250;BME280;43102;52.014;-0.680;2022-10-16T04:30:00;99792;;;11.21;71.28
57250;BME280;43102;52.014;-0.680;2022-10-16T04:31:00;99792;;;11.21;71.28
57250;BME280;43102;52.014;-0.680;2022-10-16T04:32:00;99792;;;11.21;71.28
57250;BME280;43102;52.014;-0.680;2022-10-16T04:33:00;99795;;;11.20;71.09
57250;BME280;43102;52.014;-0.680;2022-10-16T04:34:00;99795;;;11.20;71.09
57250;BME280;43102;52.014;-0.680;2022-10-16T04:35:00;99795;;;11.20;71.09
57250;BME280;43102;52.014;-0.680;2022-10-16T04:36:00;99795;;;11.20;71.09
57250;BME280;43102;52.014;-0.680;2022-10-16T04:37:00;99795;;;11.20;71.09
57250;BME280;43102;52.014;-0.680;2022-10-16T04:38:00;99811;;;11.16;71.08
57250;BME280;43102;52.014;-0.680;2022-10-16T04:39:00;99811;;;11.16;71.08
57250;BME280;43102;52.014;-0.680;2022-10-16T04:40:00;99811;;;11.16;71.08
57250;BME280;43102;52.014;-0.680;2022-10-16T04:41:00;99811;;;11.16;71.08
57250;BME280;43102;52.014;-0.680;2022-10-16T04:42:00;99811;;;11.16;71.08
57250;BME280;43102;52.014;-0.680;2022-10-16T04:43:00;99830;;;11.11;71.13
57250;BME280;43102;52.014;-0.680;2022-10-16T04:44:00;99830;;;11.11;71.13
57250;BME280;43102;52.014;-0.680;2022-10-16T04:45:00;99830;;;11.11;71.13
57250;BME280;43102;52.014;-0.680;2022-10-16T04:46:00;99830;;;11.11;71.13
57250;BME280;43102;52.014;-0.680;2022-10-16T04:47:00;99830;;;11.11;71.13
57250;BME280;43102;52.014;-0.680;2022-10-16T04:48:00;99838;;;11.09;71.08
57250;BME280;43102;52.014;-0.680;2022-10-16T04:49:00;99838;;;11.09;71.08
57250;BME280;43102;52.014;-0.680;2022-10-16T04:50:00;99838;;;11.09;71.08
57250;BME280;43102;52.014;-0.680;2022-10-16T04:51:00;99838;;;11.09;71.08
57250;BME280;43102;52.014;-0.680;2022-10-16T04:52:00;99838;;;11.09;71.08
57250;BME280;43102;52.014;-0.680;2022-10-16T04:53:00;99855;;;11.08;71.05
57250;BME280;43102;52.014;-0.680;2022-10-16T04:54:00;99855;;;11.08;71.05
57250;BME280;43102;52.014;-0.680;2022-10-16T04:55:00;99855;;;11.08;71.05
57250;BME280;43102;52.014;-0.680;2022-10-16T04:56:00;99855;;;11.08;71.05
57250;BME280;43102;52.014;-0.680;2022-10-16T04:57:00;99855;;;11.08;71.05
57250;BME280;43102;52.014;-0.680;2022-10-16T04:58:00;99855;;;11.03;71.14
57250;BME280;43102;52.014;-0.680;2022-10-16T04:59:00;99855;;;11.03;71.14
57250;BME280;43102;52.014;-0.680;2022-10-16T05:00:00;99855;;;11.03;71.14
57250;BME280;43102;52.014;-0.680;2022-10-16T05:01:00;99855;;;11.03;71.14
57250;BME280;43102;52.014;-0.680;2022-10-16T05:02:00;99855;;;11.03;71.14
57250;BME280;43102;52.014;-0.680;2022-10-16T05:03:00;99869;;;11.01;71.08
57250;BME280;43102;52.014;-0.680;2022-10-16T05:04:00;99869;;;11.01;71.08
57250;BME280;43102;52.014;-0.680;2022-10-16T05:05:00;99869;;;11.01;71.08
57250;BME280;43102;52.014;-0.680;2022-10-16T05:06:00;99869;;;11.01;71.08
57250;BME280;43102;52.014;-0.680;2022-10-16T05:07:00;99869;;;11.01;71.08
57250;BME280;43102;52.014;-0.680;2022-10-16T05:08:00;99871;;;10.96;71.16
57250;BME280;43102;52.014;-0.680;2022-10-16T05:09:00;99871;;;10.96;71.16
57250;BME280;43102;52.014;-0.680;2022-10-16T05:10:00;99871;;;10.96;71.16
57250;BME280;43102;52.014;-0.680;2022-10-16T05:11:00;99871;;;10.96;71.16
57250;BME280;43102;52.014;-0.680;2022-10-16T05:12:00;99871;;;10.96;71.16
57250;BME280;43102;52.014;-0.680;2022-10-16T05:13:00;99880;;;10.91;71.23
57250;BME280;43102;52.014;-0.680;2022-10-16T05:14:00;99880;;;10.91;71.23
57250;BME280;43102;52.014;-0.680;2022-10-16T05:15:00;99880;;;10.91;71.23
57250;BME280;43102;52.014;-0.680;2022-10-16T05:16:00;99880;;;10.91;71.23
57250;BME280;43102;52.014;-0.680;2022-10-16T05:17:00;99880;;;10.91;71.23
57250;BME280;43102;52.014;-0.680;2022-10-16T05:18:00;99892;;;10.85;71.37
57250;BME280;43102;52.014;-0.680;2022-10-16T05:19:00;99892;;;10.85;71.37
57250;BME280;43102;52.014;-0.680;2022-10-16T05:20:00;99892;;;10.85;71.37
57250;BME280;43102;52.014;-0.680;2022-10-16T05:21:00;99892;;;10.85;71.37
57250;BME280;43102;52.014;-0.680;2022-10-16T05:22:00;99892;;;10.85;71.37
57250;BME280;43102;52.014;-0.680;2022-10-16T05:23:00;99902;;;10.82;71.44
57250;BME280;43102;52.014;-0.680;2022-10-16T05:24:00;99902;;;10.82;71.44
57250;BME280;43102;52.014;-0.680;2022-10-16T05:25:00;99902;;;10.82;71.44
57250;BME280;43102;52.014;-0.680;2022-10-16T05:26:00;99902;;;10.82;71.44
57250;BME280;43102;52.014;-0.680;2022-10-16T05:27:00;99902;;;10.82;71.44
57250;BME280;43102;52.014;-0.680;2022-10-16T05:28:00;99915;;;10.78;71.70
57250;BME280;43102;52.014;-0.680;2022-10-16T05:29:00;99915;;;10.78;71.70
57250;BME280;43102;52.014;-0.680;2022-10-16T05:30:00;99915;;;10.78;71.70
57250;BME280;43102;52.014;-0.680;2022-10-16T05:31:04;99915;;;10.78;71.70
57250;BME280;43102;52.014;-0.680;2022-10-16T05:32:00;99915;;;10.78;71.70
57250;BME280;43102;52.014;-0.680;2022-10-16T05:33:00;99927;;;10.75;71.73
57250;BME280;43102;52.014;-0.680;2022-10-16T05:34:00;99927;;;10.75;71.73
57250;BME280;43102;52.014;-0.680;2022-10-16T05:35:00;99927;;;10.75;71.73
57250;BME280;43102;52.014;-0.680;2022-10-16T05:36:04;99927;;;10.75;71.73
57250;BME280;43102;52.014;-0.680;2022-10-16T05:37:00;99927;;;10.75;71.73
57250;BME280;43102;52.014;-0.680;2022-10-16T05:38:00;99940;;;10.70;71.80
57250;BME280;43102;52.014;-0.680;2022-10-16T05:39:00;99940;;;10.70;71.80